createdAt,value
2022-10-05T00:01:35.131Z,86.15
2022-10-05T00:04:23.947Z,86.31
2022-10-05T00:06:59.251Z,86.19
2022-10-05T00:09:32.293Z,86.35
2022-10-05T00:12:04.543Z,86.19
2022-10-05T00:14:35.555Z,86.19
2022-10-05T00:17:05.595Z,86.00
2022-10-05T00:19:38.331Z,86.11
2022-10-05T00:22:16.911Z,86.09
2022-10-05T00:24:46.041Z,86.08
2022-10-05T00:27:31.628Z,86.16
2022-10-05T00:30:02.604Z,86.19
2022-10-05T00:32:30.341Z,86.06
2022-10-05T00:34:58.052Z,86.08
2022-10-05T00:37:25.868Z,86.14
2022-10-05T00:39:53.620Z,86.13
2022-10-05T00:42:41.803Z,86.24
2022-10-05T00:45:23.955Z,86.25
2022-10-05T00:48:20.163Z,86.38
2022-10-05T00:51:00.197Z,86.30
2022-10-05T00:54:05.241Z,86.32
2022-10-05T00:56:33.018Z,86.52
2022-10-05T00:59:19.388Z,86.43
2022-10-05T01:01:55.573Z,86.43
2022-10-05T01:04:39.297Z,86.51
2022-10-05T01:07:40.861Z,86.59
2022-10-05T01:10:35.404Z,86.56
2022-10-05T01:13:07.339Z,86.60
2022-10-05T01:15:49.235Z,86.67
2022-10-05T01:18:27.498Z,86.70
2022-10-05T01:21:11.944Z,86.68
2022-10-05T01:24:03.882Z,86.56
2022-10-05T01:27:08.874Z,86.59
2022-10-05T01:30:17.738Z,86.72
2022-10-05T01:33:01.095Z,86.97
2022-10-05T01:35:37.852Z,86.90
2022-10-05T01:38:08.779Z,86.99
2022-10-05T01:41:05.069Z,86.87
2022-10-05T01:43:49.131Z,86.96
2022-10-05T01:46:43.290Z,87.12
2022-10-05T01:49:20.167Z,87.07
2022-10-05T01:52:08.410Z,87.18
2022-10-05T01:55:03.979Z,87.24
2022-10-05T01:57:37.258Z,87.33
2022-10-05T02:00:20.003Z,87.48
2022-10-05T02:03:07.511Z,87.48
2022-10-05T02:05:51.762Z,87.76
2022-10-05T02:08:26.668Z,87.90
2022-10-05T02:11:02.443Z,87.85
2022-10-05T02:13:43.924Z,88.22
2022-10-05T02:16:31.058Z,88.33
2022-10-05T02:19:11.853Z,88.40
2022-10-05T02:21:46.288Z,88.60
2022-10-05T02:24:26.947Z,88.74
2022-10-05T02:26:56.525Z,88.93
2022-10-05T02:29:27.651Z,89.08
2022-10-05T02:32:01.836Z,89.19
2022-10-05T02:34:31.962Z,89.12
2022-10-05T02:37:38.455Z,89.16
2022-10-05T02:40:20.871Z,89.28
2022-10-05T02:42:54.609Z,89.34
2022-10-05T02:45:26.212Z,89.48
2022-10-05T02:48:22.429Z,89.46
2022-10-05T02:51:08.340Z,89.52
2022-10-05T02:54:10.193Z,89.55
2022-10-05T02:57:01.933Z,89.42
2022-10-05T02:59:43.084Z,89.37
2022-10-05T03:02:18.155Z,89.61
2022-10-05T03:05:01.697Z,89.56
2022-10-05T03:08:09.704Z,89.67
2022-10-05T03:10:47.699Z,89.74
2022-10-05T03:13:54.197Z,89.73
2022-10-05T03:16:45.162Z,89.68
2022-10-05T03:19:39.550Z,89.80
2022-10-05T03:22:32.177Z,90.14
2022-10-05T03:25:24.365Z,90.04
2022-10-05T03:28:09.781Z,90.11
2022-10-05T03:30:41.756Z,90.14
2022-10-05T03:33:23.570Z,90.26
2022-10-05T03:36:11.843Z,90.42
2022-10-05T03:39:07.588Z,90.36
2022-10-05T03:41:45.133Z,90.07
2022-10-05T03:44:31.887Z,89.99
2022-10-05T03:47:30.397Z,90.00
2022-10-05T03:50:22.708Z,90.04
2022-10-05T03:53:14.975Z,89.94
2022-10-05T03:56:05.128Z,89.84
2022-10-05T03:58:55.772Z,89.92
2022-10-05T04:01:36.251Z,89.98
2022-10-05T04:04:07.153Z,90.07
2022-10-05T04:06:40.569Z,89.76
2022-10-05T04:09:16.267Z,89.77
2022-10-05T04:12:23.688Z,89.77
2022-10-05T04:14:59.826Z,89.73
2022-10-05T04:17:35.643Z,89.54
2022-10-05T04:20:21.253Z,89.74
2022-10-05T04:23:15.098Z,89.45
2022-10-05T04:25:57.514Z,89.37
2022-10-05T04:28:44.233Z,89.14
2022-10-05T04:31:21.278Z,88.81
2022-10-05T04:34:00.520Z,88.92
2022-10-05T04:36:38.254Z,88.98
2022-10-05T04:39:15.622Z,89.03
2022-10-05T04:41:49.772Z,89.03
2022-10-05T04:44:27.767Z,88.96
2022-10-05T04:47:13.110Z,88.82
2022-10-05T04:50:01.664Z,89.00
2022-10-05T04:53:05.574Z,89.04
2022-10-05T04:56:17.813Z,88.78
2022-10-05T04:58:58.635Z,88.82
2022-10-05T05:01:41.527Z,88.59
2022-10-05T05:04:32.219Z,88.32
2022-10-05T05:07:42.317Z,88.00
2022-10-05T05:10:23.914Z,87.62
2022-10-05T05:13:09.588Z,87.60
2022-10-05T05:15:53.945Z,87.42
2022-10-05T05:18:21.905Z,87.35
2022-10-05T05:21:02.247Z,87.48
2022-10-05T05:23:59.324Z,87.62
2022-10-05T05:27:06.073Z,87.83
2022-10-05T05:30:00.378Z,88.00
2022-10-05T05:32:44.023Z,88.12
2022-10-05T05:35:39.958Z,88.10
2022-10-05T05:38:32.808Z,88.16
2022-10-05T05:41:34.531Z,88.30
2022-10-05T05:44:21.916Z,88.29
2022-10-05T05:47:28.198Z,88.46
2022-10-05T05:50:32.305Z,88.45
2022-10-05T05:53:10.819Z,88.44
2022-10-05T05:56:01.255Z,88.41
2022-10-05T05:59:00.761Z,88.60
2022-10-05T06:01:49.011Z,88.64
2022-10-05T06:04:28.216Z,88.60
2022-10-05T06:06:58.146Z,88.58
2022-10-05T06:09:50.377Z,88.48
2022-10-05T06:12:37.268Z,88.46
2022-10-05T06:15:34.487Z,88.49
2022-10-05T06:18:10.565Z,88.36
2022-10-05T06:21:05.748Z,88.44
2022-10-05T06:23:48.669Z,88.49
2022-10-05T06:26:50.817Z,88.32
2022-10-05T06:29:23.785Z,88.46
2022-10-05T06:32:13.266Z,88.69
2022-10-05T06:35:06.121Z,88.54
2022-10-05T06:38:04.501Z,88.45
2022-10-05T06:40:41.710Z,88.36
2022-10-05T06:43:40.411Z,88.30
2022-10-05T06:46:58.076Z,88.08
2022-10-05T06:49:49.327Z,87.98
2022-10-05T06:53:02.618Z,87.69
2022-10-05T06:55:37.518Z,87.70
2022-10-05T06:58:13.568Z,87.47
2022-10-05T07:00:54.037Z,87.22
2022-10-05T07:03:44.795Z,87.06
2022-10-05T07:06:46.575Z,87.14
2022-10-05T07:09:53.407Z,86.86
2022-10-05T07:12:58.611Z,86.31
2022-10-05T07:15:56.551Z,86.25
2022-10-05T07:18:46.267Z,86.29
2022-10-05T07:25:08.408Z,86.04
2022-10-05T07:27:59.714Z,85.97
2022-10-05T07:30:28.488Z,85.68
2022-10-05T07:33:05.358Z,85.44
2022-10-05T07:36:06.403Z,85.41
2022-10-05T07:38:54.684Z,85.03
2022-10-05T07:41:32.688Z,84.96
2022-10-05T07:44:18.504Z,84.54
2022-10-05T07:47:30.277Z,84.75
2022-10-05T07:50:20.340Z,84.53
2022-10-05T07:53:15.137Z,84.20
2022-10-05T07:56:00.178Z,84.13
2022-10-05T07:58:44.207Z,83.89
2022-10-05T08:01:27.577Z,83.30
2022-10-05T08:04:11.367Z,83.45
2022-10-05T08:06:42.818Z,83.39
2022-10-05T08:09:45.513Z,82.94
2022-10-05T08:12:16.326Z,82.76
2022-10-05T08:15:14.321Z,82.82
2022-10-05T08:17:55.217Z,82.91
2022-10-05T08:20:41.623Z,82.99
2022-10-05T08:23:25.849Z,82.74
2022-10-05T08:26:03.699Z,82.33
2022-10-05T08:28:41.695Z,82.80
2022-10-05T08:31:20.642Z,82.47
2022-10-05T08:33:54.325Z,82.35
2022-10-05T08:36:55.707Z,82.46
2022-10-05T08:39:29.717Z,82.62
2022-10-05T08:42:09.359Z,81.98
2022-10-05T08:44:40.416Z,81.98
2022-10-05T08:47:08.379Z,81.72
2022-10-05T08:50:13.190Z,81.94
2022-10-05T08:53:04.449Z,81.36
2022-10-05T08:56:06.808Z,81.30
2022-10-05T08:58:38.988Z,81.22
2022-10-05T09:01:22.112Z,80.68
2022-10-05T09:04:15.446Z,80.26
2022-10-05T09:07:16.603Z,79.93
2022-10-05T09:10:15.433Z,79.83
2022-10-05T09:12:55.203Z,79.30
2022-10-05T09:15:44.021Z,79.37
2022-10-05T09:18:30.291Z,79.01
2022-10-05T09:21:10.470Z,78.95
2022-10-05T09:23:47.402Z,79.09
2022-10-05T09:26:42.655Z,79.07
2022-10-05T09:29:43.856Z,78.50
2022-10-05T09:32:49.536Z,78.78
2022-10-05T09:35:26.312Z,78.45
2022-10-05T09:38:12.403Z,78.59
2022-10-05T09:40:58.721Z,78.73
2022-10-05T09:43:40.391Z,78.54
2022-10-05T09:46:33.539Z,79.37
2022-10-05T09:49:07.531Z,78.94
2022-10-05T09:52:13.954Z,79.12
2022-10-05T09:55:21.170Z,78.82
2022-10-05T09:58:04.430Z,78.42
2022-10-05T10:00:34.979Z,78.85
2022-10-05T10:03:05.878Z,78.56
2022-10-05T10:05:49.681Z,78.49
2022-10-05T10:08:45.591Z,78.41
2022-10-05T10:11:41.322Z,78.43
2022-10-05T10:14:37.151Z,77.79
2022-10-05T10:17:26.822Z,77.23
2022-10-05T10:20:16.019Z,77.73
2022-10-05T10:23:04.941Z,77.33
2022-10-05T10:25:47.580Z,77.51
2022-10-05T10:28:52.494Z,77.47
2022-10-05T10:32:14.585Z,77.44
2022-10-05T10:35:07.038Z,77.18
2022-10-05T10:37:40.575Z,77.08
2022-10-05T10:40:23.659Z,76.67
2022-10-05T10:43:22.271Z,76.52
2022-10-05T10:46:20.697Z,76.11
2022-10-05T10:48:49.958Z,76.00
2022-10-05T10:51:56.436Z,75.68
2022-10-05T10:55:05.762Z,75.60
2022-10-05T10:57:59.370Z,75.31
2022-10-05T11:00:44.129Z,75.70
2022-10-05T11:03:44.862Z,76.09
2022-10-05T11:07:03.350Z,75.74
2022-10-05T11:09:34.084Z,75.63
2022-10-05T11:12:13.937Z,75.68
2022-10-05T11:15:06.729Z,75.78
2022-10-05T11:18:04.693Z,75.92
2022-10-05T11:20:35.428Z,75.82
2022-10-05T11:23:34.168Z,76.48
2022-10-05T11:26:32.966Z,75.86
2022-10-05T11:29:38.563Z,75.47
2022-10-05T11:32:16.568Z,75.81
2022-10-05T11:35:24.876Z,75.47
2022-10-05T11:38:28.363Z,75.35
2022-10-05T11:41:05.212Z,75.63
2022-10-05T11:44:19.197Z,75.56
2022-10-05T11:47:21.335Z,75.41
2022-10-05T11:50:16.677Z,75.32
2022-10-05T11:53:07.706Z,75.12
2022-10-05T11:55:44.080Z,75.26
2022-10-05T11:58:24.038Z,74.76
2022-10-05T12:01:11.383Z,74.43
2022-10-05T12:04:04.221Z,74.22
2022-10-05T12:06:59.525Z,74.48
2022-10-05T12:10:04.985Z,74.90
2022-10-05T12:13:01.369Z,75.24
2022-10-05T12:15:52.692Z,75.25
2022-10-05T12:18:28.675Z,75.05
2022-10-05T12:21:46.635Z,75.22
2022-10-05T12:24:37.587Z,75.27
2022-10-05T12:27:25.436Z,75.29
2022-10-05T12:30:19.748Z,75.16
2022-10-05T12:33:02.540Z,74.82
2022-10-05T12:35:53.552Z,75.35
2022-10-05T12:38:33.834Z,75.33
2022-10-05T12:41:07.951Z,75.01
2022-10-05T12:44:02.390Z,74.81
2022-10-05T12:46:51.044Z,75.19
2022-10-05T12:49:33.790Z,74.89
2022-10-05T12:52:26.832Z,74.94
2022-10-05T12:55:05.430Z,74.20
2022-10-05T12:57:42.017Z,74.32
2022-10-05T13:00:15.218Z,73.19
2022-10-05T13:02:50.904Z,73.24
2022-10-05T13:05:38.431Z,73.84
2022-10-05T13:08:13.451Z,73.62
2022-10-05T13:10:45.312Z,73.97
2022-10-05T13:13:46.782Z,73.94
2022-10-05T13:16:27.786Z,73.99
2022-10-05T13:19:14.349Z,73.38
2022-10-05T13:22:16.700Z,73.69
2022-10-05T13:25:04.877Z,73.54
2022-10-05T13:27:40.089Z,72.72
2022-10-05T13:30:17.025Z,72.50
2022-10-05T13:32:52.154Z,73.00
2022-10-05T13:35:25.072Z,73.10
2022-10-05T13:38:24.005Z,73.15
2022-10-05T13:41:12.154Z,73.12
2022-10-05T13:43:45.797Z,73.01
2022-10-05T13:46:27.762Z,73.55
2022-10-05T13:49:33.448Z,73.47
2022-10-05T13:52:20.416Z,73.76
2022-10-05T13:55:12.418Z,74.03
2022-10-05T13:58:05.985Z,73.83
2022-10-05T14:00:53.077Z,74.24
2022-10-05T14:04:13.379Z,74.05
2022-10-05T14:06:41.363Z,74.35
2022-10-05T14:09:25.422Z,74.27
2022-10-05T14:12:14.915Z,74.16
2022-10-05T14:14:50.365Z,74.08
2022-10-05T14:17:38.041Z,73.89
2022-10-05T14:20:23.850Z,73.81
2022-10-05T14:23:00.697Z,74.14
2022-10-05T14:25:30.296Z,74.22
2022-10-05T14:28:00.042Z,74.11
2022-10-05T14:30:30.510Z,74.42
2022-10-05T14:33:04.168Z,74.09
2022-10-05T14:35:57.000Z,74.35
2022-10-05T14:38:31.943Z,74.16
2022-10-05T14:41:25.466Z,74.75
2022-10-05T14:44:27.154Z,74.70
2022-10-05T14:47:02.716Z,74.88
2022-10-05T14:49:37.242Z,74.69
2022-10-05T14:52:23.722Z,75.01
2022-10-05T14:55:01.052Z,74.99
2022-10-05T14:57:50.299Z,75.07
2022-10-05T15:00:19.045Z,74.89
2022-10-05T15:03:20.334Z,74.93
2022-10-05T15:05:55.848Z,75.50
2022-10-05T15:08:41.564Z,75.67
2022-10-05T15:11:37.178Z,75.94
2022-10-05T15:14:25.223Z,76.43
2022-10-05T15:17:02.481Z,76.24
2022-10-05T15:19:39.291Z,76.43
2022-10-05T15:22:31.638Z,76.46
2022-10-05T15:25:12.919Z,76.31
2022-10-05T15:28:04.868Z,76.02
2022-10-05T15:30:37.743Z,76.17
2022-10-05T15:33:24.567Z,76.12
2022-10-05T15:36:05.344Z,76.36
2022-10-05T15:39:26.976Z,76.96
2022-10-05T15:42:00.342Z,76.89
2022-10-05T15:45:06.365Z,76.42
2022-10-05T15:47:56.242Z,76.05
2022-10-05T15:50:28.141Z,76.70
2022-10-05T15:52:58.967Z,76.02
2022-10-05T15:55:35.374Z,75.90
2022-10-05T15:58:18.141Z,76.16
2022-10-05T16:00:49.237Z,75.77
2022-10-05T16:03:49.813Z,75.60
2022-10-05T16:06:48.450Z,75.39
2022-10-05T16:09:52.829Z,75.44
2022-10-05T16:12:50.198Z,75.25
2022-10-05T16:15:42.714Z,74.68
2022-10-05T16:18:18.308Z,73.32
2022-10-05T16:21:09.522Z,73.68
2022-10-05T16:24:06.635Z,73.95
2022-10-05T16:26:59.338Z,74.23
2022-10-05T16:29:46.593Z,74.53
2022-10-05T16:32:25.096Z,74.72
2022-10-05T16:35:17.811Z,74.55
2022-10-05T16:38:00.577Z,74.62
2022-10-05T16:41:01.932Z,73.59
2022-10-05T16:44:13.147Z,73.25
2022-10-05T16:46:44.291Z,73.28
2022-10-05T16:49:22.041Z,73.53
2022-10-05T16:51:53.138Z,73.47
2022-10-05T16:54:39.059Z,73.66
2022-10-05T16:57:23.094Z,73.89
2022-10-05T17:00:20.428Z,74.00
2022-10-05T17:03:12.957Z,74.10
2022-10-05T17:06:00.789Z,74.39
2022-10-05T17:09:10.664Z,74.36
2022-10-05T17:12:13.826Z,74.80
2022-10-05T17:15:03.700Z,75.37
2022-10-05T17:18:09.188Z,75.30
2022-10-05T17:20:45.585Z,75.44
2022-10-05T17:23:39.909Z,75.52
2022-10-05T17:26:22.554Z,75.50
2022-10-05T17:29:25.106Z,75.81
2022-10-05T17:32:07.835Z,75.92
2022-10-05T17:35:02.839Z,76.14
2022-10-05T17:37:31.977Z,76.27
2022-10-05T17:40:02.361Z,76.52
2022-10-05T17:42:30.582Z,76.57
2022-10-05T17:45:21.427Z,76.64
2022-10-05T17:48:04.891Z,76.90
2022-10-05T17:51:02.456Z,77.10
2022-10-05T17:54:05.390Z,76.92
2022-10-05T17:56:56.113Z,76.98
2022-10-05T17:59:44.535Z,77.00
2022-10-05T18:02:23.290Z,77.12
2022-10-05T18:05:01.498Z,77.22
2022-10-05T18:07:29.611Z,77.43
2022-10-05T18:10:01.050Z,77.52
2022-10-05T18:13:08.019Z,77.57
2022-10-05T18:15:46.535Z,77.64
2022-10-05T18:18:34.633Z,77.72
2022-10-05T18:21:15.174Z,77.86
2022-10-05T18:23:52.545Z,77.90
2022-10-05T18:26:51.989Z,78.00
2022-10-05T18:30:05.377Z,78.12
2022-10-05T18:32:58.678Z,78.13
2022-10-05T18:35:42.432Z,78.10
2022-10-05T18:38:19.230Z,78.17
2022-10-05T18:41:02.668Z,78.28
2022-10-05T18:43:42.594Z,78.28
2022-10-05T18:46:16.594Z,78.38
2022-10-05T18:48:56.468Z,78.20
2022-10-05T18:51:51.657Z,78.15
2022-10-05T18:54:26.973Z,77.95
2022-10-05T18:56:55.130Z,78.18
2022-10-05T18:59:37.936Z,78.00
2022-10-05T19:02:19.731Z,77.98
2022-10-05T19:04:50.665Z,78.10
2022-10-05T19:07:32.729Z,78.00
2022-10-05T19:10:04.912Z,78.08
2022-10-05T19:12:57.765Z,78.13
2022-10-05T19:15:53.455Z,78.38
2022-10-05T19:18:41.935Z,78.21
2022-10-05T19:21:12.562Z,78.31
2022-10-05T19:24:06.387Z,78.32
2022-10-05T19:26:42.332Z,78.52
2022-10-05T19:29:27.030Z,78.56
2022-10-05T19:32:14.921Z,78.68
2022-10-05T19:34:45.630Z,78.79
2022-10-05T19:37:23.380Z,78.91
2022-10-05T19:40:10.208Z,79.04
2022-10-05T19:42:59.065Z,78.95
2022-10-05T19:45:31.912Z,79.14
2022-10-05T19:48:28.172Z,79.23
2022-10-05T19:50:59.001Z,79.44
2022-10-05T19:53:29.849Z,79.45
2022-10-05T19:56:21.635Z,79.85
2022-10-05T19:58:56.337Z,79.75
2022-10-05T20:01:35.434Z,79.85
2022-10-05T20:04:05.006Z,79.83
2022-10-05T20:06:33.269Z,80.02
2022-10-05T20:09:20.128Z,80.13
2022-10-05T20:11:52.773Z,80.50
2022-10-05T20:14:57.252Z,80.72
2022-10-05T20:17:49.322Z,82.32
2022-10-05T20:20:34.597Z,87.06
2022-10-05T20:23:25.515Z,89.71
2022-10-05T20:26:12.142Z,90.73
2022-10-05T20:28:40.058Z,92.09
2022-10-05T20:31:08.556Z,92.35
2022-10-05T20:33:36.491Z,92.62
2022-10-05T20:36:06.876Z,93.04
2022-10-05T20:38:40.597Z,93.44
2022-10-05T20:41:09.826Z,93.28
2022-10-05T20:43:39.288Z,93.08
2022-10-05T20:46:08.606Z,93.80
2022-10-05T20:48:36.905Z,93.70
2022-10-05T20:51:04.802Z,94.31
2022-10-05T20:53:33.692Z,94.43
2022-10-05T20:56:04.639Z,94.59
2022-10-05T20:58:32.679Z,95.27
2022-10-05T21:01:15.804Z,95.37
2022-10-05T21:03:44.036Z,95.43
2022-10-05T21:06:12.632Z,95.39
2022-10-05T21:08:40.504Z,95.71
2022-10-05T21:11:11.261Z,96.03
2022-10-05T21:13:45.569Z,96.03
2022-10-05T21:16:17.532Z,95.88
2022-10-05T21:18:49.398Z,96.10
2022-10-05T21:21:18.422Z,95.91
2022-10-05T21:23:48.234Z,95.77
2022-10-05T21:26:16.341Z,95.75
2022-10-05T21:28:44.318Z,95.98
2022-10-05T21:31:12.367Z,96.12
2022-10-05T21:33:40.601Z,96.34
2022-10-05T21:36:08.396Z,96.43
2022-10-05T21:38:37.107Z,96.58
2022-10-05T21:41:05.038Z,96.88
2022-10-05T21:43:33.542Z,96.46
2022-10-05T21:46:02.226Z,96.26
2022-10-05T21:48:32.994Z,96.25
2022-10-05T21:51:03.487Z,95.86
2022-10-05T21:53:35.025Z,95.88
2022-10-05T21:56:06.960Z,95.92
2022-10-05T21:58:37.715Z,95.93
2022-10-05T22:01:05.756Z,95.91
2022-10-05T22:03:34.072Z,95.84
2022-10-05T22:06:03.640Z,95.84
2022-10-05T22:08:33.572Z,95.75
2022-10-05T22:11:11.371Z,95.40
2022-10-05T22:13:48.382Z,95.51
2022-10-05T22:16:18.232Z,95.59
2022-10-05T22:18:46.338Z,95.33
2022-10-05T22:21:14.781Z,94.88
2022-10-05T22:23:45.047Z,94.45
2022-10-05T22:26:16.637Z,94.84
2022-10-05T22:28:46.695Z,94.93
2022-10-05T22:31:14.873Z,94.63
2022-10-05T22:33:42.694Z,94.90
2022-10-05T22:36:11.353Z,95.02
2022-10-05T22:38:39.076Z,95.27
2022-10-05T22:41:11.596Z,95.47
2022-10-05T22:43:39.656Z,95.66
2022-10-05T22:46:12.405Z,95.95
2022-10-05T22:48:40.906Z,96.20
2022-10-05T22:51:09.255Z,96.41
2022-10-05T22:53:37.337Z,96.69
2022-10-05T22:56:10.582Z,96.92
2022-10-05T22:58:38.894Z,97.36
2022-10-05T23:01:17.964Z,97.49
2022-10-05T23:03:46.157Z,97.64
2022-10-05T23:06:20.459Z,97.87
2022-10-05T23:08:51.410Z,98.04
2022-10-05T23:11:27.633Z,98.29
2022-10-05T23:13:56.955Z,98.54
2022-10-05T23:16:27.697Z,98.59
2022-10-05T23:18:58.390Z,98.76
2022-10-05T23:21:30.255Z,98.87
2022-10-05T23:23:58.063Z,98.93
2022-10-05T23:26:26.350Z,98.89
2022-10-05T23:28:54.280Z,98.77
2022-10-05T23:31:29.089Z,98.62
2022-10-05T23:33:56.781Z,98.51
2022-10-05T23:36:27.708Z,98.41
2022-10-05T23:38:55.546Z,98.33
2022-10-05T23:41:23.586Z,98.28
2022-10-05T23:43:52.020Z,98.01
2022-10-05T23:46:19.975Z,97.95
2022-10-05T23:48:50.212Z,97.67
2022-10-05T23:51:18.690Z,97.64
2022-10-05T23:53:46.561Z,97.67
2022-10-05T23:56:14.503Z,97.54
2022-10-05T23:58:42.475Z,97.34
